createdAt,value
2023-04-19T00:15:00.809Z,50.1
2023-04-19T00:35:00.791Z,50.1
2023-04-19T00:55:00.763Z,50.1
2023-04-19T01:15:00.700Z,50.1
2023-04-19T01:35:00.681Z,50.1
2023-04-19T01:55:00.640Z,50.2
2023-04-19T02:15:00.626Z,50.2
2023-04-19T02:35:00.625Z,50.1
2023-04-19T02:55:00.573Z,50.1
2023-04-19T03:15:00.547Z,50.2
2023-04-19T03:35:00.527Z,50.0
2023-04-19T03:55:00.479Z,50.0
2023-04-19T04:15:00.482Z,49.8
2023-04-19T04:35:00.469Z,49.7
2023-04-19T04:55:00.484Z,49.5
2023-04-19T05:15:00.408Z,49.4
2023-04-19T05:35:00.412Z,49.3
2023-04-19T05:55:00.524Z,49.4
2023-04-19T06:15:00.497Z,49.7
2023-04-19T06:35:00.367Z,49.7
2023-04-19T06:55:00.418Z,49.6
2023-04-19T07:15:00.359Z,49.5
2023-04-19T07:35:00.248Z,49.5
2023-04-19T07:55:00.234Z,49.5
2023-04-19T08:15:00.355Z,49.5
2023-04-19T08:35:00.250Z,49.5
2023-04-19T08:55:00.192Z,49.4
2023-04-19T09:15:00.128Z,49.6
2023-04-19T09:35:00.094Z,49.7
2023-04-19T09:55:00.072Z,49.7
2023-04-19T10:15:00.025Z,49.6
2023-04-19T10:35:00.034Z,49.4
2023-04-19T10:54:59.972Z,49.4
2023-04-19T11:14:59.940Z,49.2
2023-04-19T11:34:59.903Z,49.1
2023-04-19T11:54:59.922Z,48.9
2023-04-19T12:14:59.860Z,47.9
2023-04-19T12:34:59.874Z,48.6
2023-04-19T12:54:59.925Z,49.2
2023-04-19T13:14:59.792Z,49.4
2023-04-19T13:34:59.802Z,49.5
2023-04-19T13:54:59.746Z,49.6
2023-04-19T14:14:59.747Z,49.7
2023-04-19T14:34:59.686Z,49.9
2023-04-19T14:54:59.657Z,50.0
2023-04-19T15:14:59.649Z,50.0
2023-04-19T15:34:59.587Z,49.4
2023-04-19T15:54:59.606Z,49.5
2023-04-19T16:14:59.568Z,49.4
2023-04-19T16:34:59.553Z,49.4
2023-04-19T16:54:59.552Z,49.3
2023-04-19T17:14:59.505Z,49.2
2023-04-19T17:34:59.453Z,49.2
2023-04-19T17:54:59.419Z,49.2
2023-04-19T18:14:59.413Z,49.1
2023-04-19T18:34:59.385Z,49.1
2023-04-19T18:54:59.364Z,49.1
2023-04-19T19:14:59.354Z,49.2
2023-04-19T19:34:59.299Z,49.1
2023-04-19T19:54:59.337Z,49.2
2023-04-19T20:14:59.301Z,49.1
2023-04-19T20:34:59.244Z,49.1
2023-04-19T20:54:59.197Z,49.0
2023-04-19T21:14:59.189Z,48.7
2023-04-19T21:34:59.166Z,48.7
2023-04-19T21:54:59.114Z,48.7
2023-04-19T22:14:59.161Z,48.7
2023-04-19T22:34:59.163Z,48.7
2023-04-19T22:54:59.052Z,48.7
2023-04-19T23:14:59.022Z,48.8
2023-04-19T23:34:59.012Z,48.7
2023-04-19T23:54:58.971Z,48.7
